Michalakis III — SVA7821 — position and weather

sailwx.info

Track history (hours):
 
Tides and Currents Weather Stations Pressure Air Temp Water Temp Dewpoint Dewpoint Depression Visibility Wind Speed Wind Dir Waves Ship Positions

Michalakis III

Last reported at 2018-Feb-17 17:13 UTC. Time now 2018-Feb-17 21:28 UTC.
Position N 38°11' E 024°09'.

Length 78 m; draft 3 m.

Type: Passenger vessel. MMSI: 240043200.

Date/timePositionNaut miles runAvg speedWind from/ knotsBaromVisibWave heightAir tempDewpointWater temp
2018-Feb-17 17:13N 38°11' E 024°09'2 1.8
2018-Feb-17 16:09N 38°11' E 024°07'2 2.2
2018-Feb-17 15:16N 38°11' E 024°09'2 1.7
2018-Feb-17 14:10N 38°11' E 024°07'211.5
2018-Feb-17 13:59N 38°11' E 024°09'0 0.2
2018-Feb-17 13:17N 38°11' E 024°09'2 1.5
2018-Feb-17 11:59N 38°11' E 024°07'0 0.0
2018-Feb-17 09:05N 38°11' E 024°06'1 8.7
2018-Feb-17 08:59N 38°11' E 024°08'0 0.0
2018-Feb-16 15:31N 38°11' E 024°07'110.2
2018-Feb-16 15:23N 38°11' E 024°09'3 4.3
2018-Feb-16 14:47N 38°11' E 024°12'3 9.7
2018-Feb-16 14:27N 38°11' E 024°08'1 0.8
2018-Feb-16 12:58N 38°11' E 024°07'4 1.3
2018-Feb-16 09:43N 38°11' E 024°12'3 6.9
2018-Feb-16 09:20N 38°11' E 024°09'2 1.7
2018-Feb-16 08:07N 38°11' E 024°06'5 3.8
2018-Feb-16 06:53N 38°11' E 024°12'4 0.3
2018-Feb-15 16:02N 38°11' E 024°07'1 8.6
2018-Feb-15 15:58N 38°11' E 024°08'1 1.0
2018-Feb-15 15:04N 38°11' E 024°09'1 7.3
2018-Feb-15 14:58N 38°11' E 024°08'1 1.5
2018-Feb-15 14:04N 38°10' E 024°07'1 9.3
2018-Feb-15 13:57N 38°11' E 024°08'1 0.3
2018-Feb-15 11:51N 38°11' E 024°09'2 0.1
2018-Feb-14 08:07N 38°10' E 024°07'1 7.4
2018-Feb-14 08:00N 38°10' E 024°08'0 0.1
2018-Feb-14 05:06N 38°10' E 024°08'1 0.0
2018-Feb-13 16:00N 38°11' E 024°07'1 0.3
2018-Feb-13 14:08N 38°11' E 024°06'2 8.7
2018-Feb-13 13:55N 38°11' E 024°09'2 0.9
2018-Feb-13 12:04N 38°11' E 024°06'1 9.6
2018-Feb-13 11:59N 38°11' E 024°08'0 0.1
2018-Feb-13 09:07N 38°11' E 024°08'1 1.0
2018-Feb-13 08:01N 38°11' E 024°07'1 9.8
2018-Feb-13 07:58N 38°11' E 024°07'1 0.9
2018-Feb-13 06:32N 38°11' E 024°09'1 9.3
2018-Feb-13 06:26N 38°11' E 024°08'0 0.3
2018-Feb-13 05:02N 38°11' E 024°07'0 9.0
2018-Feb-13 05:00N 38°11' E 024°08'4 0.3
2018-Feb-12 17:15N 38°11' E 024°12'4 3.2
2018-Feb-12 15:58N 38°11' E 024°07'0 0.4
2018-Feb-12 14:55N 38°11' E 024°08'1 0.6
2018-Feb-12 14:01N 38°11' E 024°07'0 9.6
2018-Feb-12 13:58N 38°11' E 024°08'1 0.4
2018-Feb-12 12:05N 38°11' E 024°07'2 0.1
2018-Feb-11 10:59N 38°11' E 024°09'1 1.3
2018-Feb-11 10:00N 38°10' E 024°08'1 0.4
2018-Feb-11 07:47N 38°11' E 024°07'1 0.6
2018-Feb-11 06:42N 38°11' E 024°08'1 1.1
2018-Feb-11 05:33N 38°10' E 024°07'1 9.4
2018-Feb-11 05:27N 38°11' E 024°08'3 0.3
2018-Feb-10 17:14N 38°11' E 024°12'3 9.6
2018-Feb-10 16:53N 38°11' E 024°08'1 1.1
2018-Feb-10 16:02N 38°11' E 024°07'2 9.2
2018-Feb-10 15:52N 38°11' E 024°09'0 0.0
2018-Feb-10 15:04N 38°11' E 024°09'0 9.0
2018-Feb-10 15:01N 38°11' E 024°08'1 0.8
2018-Feb-10 13:59N 38°11' E 024°07'0 0.1
2018-Feb-10 12:03N 38°11' E 024°07'  
Track history (hours):
 
Tides and Currents Weather Stations Pressure Air Temp Water Temp Dewpoint Dewpoint Depression Visibility Wind Speed Wind Dir Waves Ship Positions

Michalakis III

Last reported at 2018-Feb-17 17:13 UTC. Time now 2018-Feb-17 21:28 UTC.
Position N 38°11' E 024°09'.

Length 78 m; draft 3 m.

Type: Passenger vessel. MMSI: 240043200.

Date/timePositionNaut miles runAvg speedWind from/ knotsBaromVisibWave heightAir tempDewpointWater temp
2018-Feb-17 17:13N 38°11' E 024°09'2 1.8
2018-Feb-17 16:09N 38°11' E 024°07'2 2.2
2018-Feb-17 15:16N 38°11' E 024°09'2 1.7
2018-Feb-17 14:10N 38°11' E 024°07'211.5
2018-Feb-17 13:59N 38°11' E 024°09'0 0.2
2018-Feb-17 13:17N 38°11' E 024°09'2 1.5
2018-Feb-17 11:59N 38°11' E 024°07'0 0.0
2018-Feb-17 09:05N 38°11' E 024°06'1 8.7
2018-Feb-17 08:59N 38°11' E 024°08'0 0.0
2018-Feb-16 15:31N 38°11' E 024°07'110.2
2018-Feb-16 15:23N 38°11' E 024°09'3 4.3
2018-Feb-16 14:47N 38°11' E 024°12'3 9.7
2018-Feb-16 14:27N 38°11' E 024°08'1 0.8
2018-Feb-16 12:58N 38°11' E 024°07'4 1.3
2018-Feb-16 09:43N 38°11' E 024°12'3 6.9
2018-Feb-16 09:20N 38°11' E 024°09'2 1.7
2018-Feb-16 08:07N 38°11' E 024°06'5 3.8
2018-Feb-16 06:53N 38°11' E 024°12'4 0.3
2018-Feb-15 16:02N 38°11' E 024°07'1 8.6
2018-Feb-15 15:58N 38°11' E 024°08'1 1.0
2018-Feb-15 15:04N 38°11' E 024°09'1 7.3
2018-Feb-15 14:58N 38°11' E 024°08'1 1.5
2018-Feb-15 14:04N 38°10' E 024°07'1 9.3
2018-Feb-15 13:57N 38°11' E 024°08'1 0.3
2018-Feb-15 11:51N 38°11' E 024°09'2 0.1
2018-Feb-14 08:07N 38°10' E 024°07'1 7.4
2018-Feb-14 08:00N 38°10' E 024°08'0 0.1
2018-Feb-14 05:06N 38°10' E 024°08'1 0.0
2018-Feb-13 16:00N 38°11' E 024°07'1 0.3
2018-Feb-13 14:08N 38°11' E 024°06'2 8.7
2018-Feb-13 13:55N 38°11' E 024°09'2 0.9
2018-Feb-13 12:04N 38°11' E 024°06'1 9.6
2018-Feb-13 11:59N 38°11' E 024°08'0 0.1
2018-Feb-13 09:07N 38°11' E 024°08'1 1.0
2018-Feb-13 08:01N 38°11' E 024°07'1 9.8
2018-Feb-13 07:58N 38°11' E 024°07'1 0.9
2018-Feb-13 06:32N 38°11' E 024°09'1 9.3
2018-Feb-13 06:26N 38°11' E 024°08'0 0.3
2018-Feb-13 05:02N 38°11' E 024°07'0 9.0
2018-Feb-13 05:00N 38°11' E 024°08'4 0.3
2018-Feb-12 17:15N 38°11' E 024°12'4 3.2
2018-Feb-12 15:58N 38°11' E 024°07'0 0.4
2018-Feb-12 14:55N 38°11' E 024°08'1 0.6
2018-Feb-12 14:01N 38°11' E 024°07'0 9.6
2018-Feb-12 13:58N 38°11' E 024°08'1 0.4
2018-Feb-12 12:05N 38°11' E 024°07'2 0.1
2018-Feb-11 10:59N 38°11' E 024°09'1 1.3
2018-Feb-11 10:00N 38°10' E 024°08'1 0.4
2018-Feb-11 07:47N 38°11' E 024°07'1 0.6
2018-Feb-11 06:42N 38°11' E 024°08'1 1.1
2018-Feb-11 05:33N 38°10' E 024°07'1 9.4
2018-Feb-11 05:27N 38°11' E 024°08'3 0.3
2018-Feb-10 17:14N 38°11' E 024°12'3 9.6
2018-Feb-10 16:53N 38°11' E 024°08'1 1.1
2018-Feb-10 16:02N 38°11' E 024°07'2 9.2
2018-Feb-10 15:52N 38°11' E 024°09'0 0.0
2018-Feb-10 15:04N 38°11' E 024°09'0 9.0
2018-Feb-10 15:01N 38°11' E 024°08'1 0.8
2018-Feb-10 13:59N 38°11' E 024°07'0 0.1
2018-Feb-10 12:03N 38°11' E 024°07'  

Dump ship's entire track history